createdAt,value
2022-11-14T00:00:46.824Z,20.70
2022-11-14T00:01:48.386Z,25.42
2022-11-14T00:02:51.265Z,25.55
2022-11-14T00:03:52.961Z,21.17
2022-11-14T00:04:55.558Z,28.58
2022-11-14T00:05:57.174Z,29.67
2022-11-14T00:07:00.607Z,24.67
2022-11-14T00:08:02.262Z,24.58
2022-11-14T00:09:04.902Z,23.58
2022-11-14T00:10:07.336Z,23.75
2022-11-14T00:11:10.644Z,25.77
2022-11-14T00:12:12.815Z,24.63
2022-11-14T00:13:16.195Z,20.50
2022-11-14T00:14:17.801Z,24.48
2022-11-14T00:15:20.486Z,22.48
2022-11-14T00:16:23.389Z,29.52
2022-11-14T00:17:26.050Z,22.98
2022-11-14T00:18:28.926Z,22.05
2022-11-14T00:19:31.173Z,25.42
2022-11-14T00:20:33.852Z,24.63
2022-11-14T00:21:35.405Z,24.38
2022-11-14T00:22:37.936Z,25.50
2022-11-14T00:23:39.525Z,23.08
2022-11-14T00:24:42.135Z,25.75
2022-11-14T00:25:43.974Z,24.67
2022-11-14T00:26:46.761Z,23.55
2022-11-14T00:27:48.357Z,23.73
2022-11-14T00:28:50.921Z,22.67
2022-11-14T00:29:52.718Z,24.85
2022-11-14T00:30:55.249Z,24.50
2022-11-14T00:31:58.194Z,25.40
2022-11-14T00:33:00.757Z,26.25
2022-11-14T00:34:02.352Z,26.17
2022-11-14T00:35:05.297Z,28.08
2022-11-14T00:36:08.133Z,25.55
2022-11-14T00:37:09.801Z,28.02
2022-11-14T00:38:12.344Z,23.73
2022-11-14T00:39:14.638Z,27.27
2022-11-14T00:40:17.682Z,27.55
2022-11-14T00:41:19.263Z,24.55
2022-11-14T00:42:21.825Z,25.02
2022-11-14T00:43:23.428Z,26.10
2022-11-14T00:44:26.100Z,24.30
2022-11-14T00:45:27.718Z,26.88
2022-11-14T00:46:30.230Z,29.42
2022-11-14T00:47:33.135Z,25.95
2022-11-14T00:48:35.738Z,26.58
2022-11-14T00:49:37.334Z,24.33
2022-11-14T00:50:39.891Z,20.15
2022-11-14T00:51:41.457Z,23.13
2022-11-14T00:52:43.977Z,22.95
2022-11-14T00:53:45.568Z,24.98
2022-11-14T00:54:48.135Z,23.95
2022-11-14T00:55:49.915Z,26.80
2022-11-14T00:56:52.444Z,25.23
2022-11-14T00:57:54.001Z,25.48
2022-11-14T00:58:56.636Z,22.88
2022-11-14T00:59:58.259Z,22.60
2022-11-14T01:01:00.913Z,20.90
2022-11-14T01:02:02.605Z,27.90
2022-11-14T01:03:06.547Z,23.38
2022-11-14T01:04:08.202Z,24.58
2022-11-14T01:05:10.968Z,23.05
2022-11-14T01:06:13.768Z,26.05
2022-11-14T01:07:16.492Z,21.15
2022-11-14T01:08:19.692Z,23.67
2022-11-14T01:09:22.418Z,26.42
2022-11-14T01:10:24.130Z,26.02
2022-11-14T01:11:26.632Z,24.88
2022-11-14T01:12:28.160Z,25.70
2022-11-14T01:13:33.294Z,22.33
2022-11-14T01:14:34.888Z,24.02
2022-11-14T01:15:40.015Z,26.30
2022-11-14T01:16:41.543Z,25.10
2022-11-14T01:17:44.269Z,22.30
2022-11-14T01:18:47.248Z,23.48
2022-11-14T01:19:49.761Z,25.88
2022-11-14T01:20:51.358Z,25.90
2022-11-14T01:21:53.888Z,24.30
2022-11-14T01:22:55.653Z,24.17
2022-11-14T01:23:58.248Z,23.73
2022-11-14T01:24:59.789Z,23.85
2022-11-14T01:26:02.984Z,32.33
2022-11-14T01:27:04.589Z,24.05
2022-11-14T01:28:08.169Z,23.35
2022-11-14T01:29:09.867Z,23.40
2022-11-14T01:30:13.978Z,24.05
2022-11-14T01:31:17.883Z,22.80
2022-11-14T01:32:20.389Z,19.77
2022-11-14T01:33:22.014Z,24.25
2022-11-14T01:34:26.456Z,22.65
2022-11-14T01:35:28.217Z,25.23
2022-11-14T01:36:30.739Z,25.73
2022-11-14T01:37:32.326Z,28.40
2022-11-14T01:38:35.018Z,24.10
2022-11-14T01:39:36.558Z,23.65
2022-11-14T01:40:42.653Z,24.40
2022-11-14T01:41:45.177Z,22.58
2022-11-14T01:43:20.205Z,22.20
2022-11-14T01:44:43.866Z,26.58
2022-11-14T01:45:52.184Z,22.90
2022-11-14T01:46:56.902Z,25.35
2022-11-14T01:47:58.458Z,25.77
2022-11-14T01:49:03.801Z,24.65
2022-11-14T01:50:09.751Z,27.25
2022-11-14T01:51:22.730Z,23.48
2022-11-14T01:52:26.117Z,22.05
2022-11-14T01:53:28.746Z,26.95
2022-11-14T01:54:33.123Z,26.08
2022-11-14T01:55:35.655Z,24.65
2022-11-14T01:56:40.950Z,28.60
2022-11-14T01:57:45.407Z,24.48
2022-11-14T01:58:50.424Z,29.52
2022-11-14T01:59:54.812Z,23.33
2022-11-14T02:00:56.832Z,22.58
2022-11-14T02:02:03.878Z,24.98
2022-11-14T02:03:05.400Z,25.58
2022-11-14T02:04:11.644Z,22.98
2022-11-14T02:05:18.124Z,26.35
2022-11-14T02:06:24.741Z,25.00
2022-11-14T02:07:28.494Z,21.73
2022-11-14T02:08:31.740Z,29.27
2022-11-14T02:09:35.973Z,22.95
2022-11-14T02:10:38.519Z,26.80
2022-11-14T02:11:42.814Z,23.23
2022-11-14T02:12:45.810Z,29.35
2022-11-14T02:13:47.478Z,32.85
2022-11-14T02:14:52.765Z,29.20
2022-11-14T02:15:54.574Z,29.05
2022-11-14T02:17:27.297Z,25.75
2022-11-14T02:18:18.767Z,23.08
2022-11-14T02:19:21.602Z,23.23
2022-11-14T02:20:28.496Z,24.85
2022-11-14T02:21:31.050Z,25.75
2022-11-14T02:22:33.074Z,21.30
2022-11-14T02:23:35.662Z,26.00
2022-11-14T02:24:37.192Z,25.48
2022-11-14T02:25:40.488Z,24.85
2022-11-14T02:26:42.775Z,25.95
2022-11-14T02:27:45.399Z,22.33
2022-11-14T02:28:47.326Z,22.70
2022-11-14T02:29:49.904Z,24.35
2022-11-14T02:30:51.597Z,22.88
2022-11-14T02:31:54.137Z,24.70
2022-11-14T02:33:11.724Z,24.50
2022-11-14T02:34:16.787Z,24.60
2022-11-14T02:35:18.410Z,26.08
2022-11-14T02:36:22.417Z,20.90
2022-11-14T02:37:24.048Z,26.45
2022-11-14T02:38:26.839Z,27.35
2022-11-14T02:39:28.586Z,27.85
2022-11-14T02:40:31.223Z,25.13
2022-11-14T02:41:32.862Z,22.38
2022-11-14T02:42:35.452Z,26.55
2022-11-14T02:43:37.028Z,27.60
2022-11-14T02:44:39.542Z,26.33
2022-11-14T02:45:41.215Z,22.45
2022-11-14T02:46:43.795Z,23.25
2022-11-14T02:47:45.381Z,25.95
2022-11-14T02:48:47.909Z,26.80
2022-11-14T02:49:49.445Z,24.15
2022-11-14T02:50:51.943Z,23.33
2022-11-14T02:51:54.892Z,21.88
2022-11-14T02:52:57.465Z,24.02
2022-11-14T02:53:59.050Z,22.38
2022-11-14T02:55:01.543Z,23.20
2022-11-14T02:56:03.290Z,23.25
2022-11-14T02:57:05.897Z,23.08
2022-11-14T02:58:07.602Z,24.33
2022-11-14T02:59:10.290Z,27.15
2022-11-14T03:00:15.220Z,20.40
2022-11-14T03:01:21.273Z,20.52
2022-11-14T03:02:23.181Z,26.27
2022-11-14T03:03:25.776Z,24.17
2022-11-14T03:04:27.416Z,25.83
2022-11-14T03:05:29.914Z,23.65
2022-11-14T03:06:31.487Z,22.52
2022-11-14T03:07:35.464Z,22.60
2022-11-14T03:08:37.038Z,23.08
2022-11-14T03:09:39.549Z,27.40
2022-11-14T03:10:41.097Z,22.92
2022-11-14T03:11:43.671Z,25.40
2022-11-14T03:12:45.230Z,23.17
2022-11-14T03:13:47.786Z,26.27
2022-11-14T03:14:49.421Z,27.60
2022-11-14T03:15:51.930Z,27.67
2022-11-14T03:16:55.113Z,25.08
2022-11-14T03:17:57.720Z,28.90
2022-11-14T03:18:59.283Z,28.45
2022-11-14T03:20:01.989Z,27.33
2022-11-14T03:21:07.891Z,20.23
2022-11-14T03:22:10.674Z,23.75
2022-11-14T03:23:13.592Z,26.27
2022-11-14T03:24:16.257Z,25.92
2022-11-14T03:25:17.846Z,24.98
2022-11-14T03:26:20.408Z,25.83
2022-11-14T03:27:21.953Z,24.35
2022-11-14T03:28:24.489Z,30.25
2022-11-14T03:29:26.116Z,24.05
2022-11-14T03:30:28.611Z,29.08
2022-11-14T03:31:30.229Z,30.45
2022-11-14T03:32:32.766Z,23.75
2022-11-14T03:33:34.843Z,30.20
2022-11-14T03:34:37.375Z,26.27
2022-11-14T03:35:42.437Z,30.55
2022-11-14T03:36:44.967Z,26.50
2022-11-14T03:37:46.558Z,27.52
2022-11-14T03:38:50.456Z,25.02
2022-11-14T03:39:52.063Z,28.08
2022-11-14T03:40:54.837Z,30.38
2022-11-14T03:41:57.374Z,27.67
2022-11-14T03:42:58.908Z,28.63
2022-11-14T03:44:01.421Z,26.98
2022-11-14T03:45:04.393Z,28.38
2022-11-14T03:46:06.061Z,27.20
2022-11-14T03:47:08.610Z,26.23
2022-11-14T03:48:10.479Z,29.63
2022-11-14T03:49:13.017Z,28.48
2022-11-14T03:50:14.709Z,27.45
2022-11-14T03:51:17.338Z,28.98
2022-11-14T03:52:19.035Z,25.10
2022-11-14T03:53:21.677Z,26.80
2022-11-14T03:54:24.622Z,27.92
2022-11-14T03:55:27.394Z,26.40
2022-11-14T03:56:28.957Z,29.35
2022-11-14T03:57:31.757Z,26.40
2022-11-14T03:58:33.431Z,30.10
2022-11-14T03:59:35.961Z,23.88
2022-11-14T04:00:37.871Z,28.63
2022-11-14T04:01:40.413Z,30.58
2022-11-14T04:02:42.005Z,27.35
2022-11-14T04:03:44.632Z,26.40
2022-11-14T04:04:46.224Z,28.48
2022-11-14T04:05:48.791Z,27.83
2022-11-14T04:06:50.460Z,24.50
2022-11-14T04:07:53.264Z,30.45
2022-11-14T04:08:56.645Z,28.02
2022-11-14T04:09:59.618Z,31.33
2022-11-14T04:11:02.204Z,28.95
2022-11-14T04:12:04.046Z,24.75
2022-11-14T04:13:06.739Z,25.05
2022-11-14T04:14:09.271Z,25.40
2022-11-14T04:15:12.256Z,26.50
2022-11-14T04:16:13.872Z,29.52
2022-11-14T04:17:16.497Z,27.45
2022-11-14T04:18:18.085Z,31.20
2022-11-14T04:19:20.657Z,24.58
2022-11-14T04:20:22.237Z,23.25
2022-11-14T04:21:24.814Z,28.17
2022-11-14T04:22:26.377Z,26.70
2022-11-14T04:23:28.917Z,29.20
2022-11-14T04:24:30.492Z,26.13
2022-11-14T04:25:34.495Z,27.63
2022-11-14T04:26:36.123Z,27.45
2022-11-14T04:27:38.722Z,30.08
2022-11-14T04:28:40.412Z,31.75
2022-11-14T04:29:42.935Z,30.02
2022-11-14T04:30:45.243Z,30.40
2022-11-14T04:31:47.858Z,28.58
2022-11-14T04:32:49.493Z,26.40
2022-11-14T04:33:52.088Z,26.63
2022-11-14T04:34:53.663Z,26.35
2022-11-14T04:35:56.237Z,30.73
2022-11-14T04:36:57.968Z,27.40
2022-11-14T04:38:00.544Z,26.13
2022-11-14T04:39:02.184Z,34.30
2022-11-14T04:40:05.495Z,28.10
2022-11-14T04:41:08.472Z,23.83
2022-11-14T04:42:11.264Z,30.67
2022-11-14T04:43:12.882Z,26.25
2022-11-14T04:44:15.505Z,29.08
2022-11-14T04:45:17.301Z,26.70
2022-11-14T04:46:19.955Z,26.60
2022-11-14T04:47:21.552Z,30.17
2022-11-14T04:48:24.137Z,25.05
2022-11-14T04:49:25.715Z,27.98
2022-11-14T04:50:28.251Z,29.50
2022-11-14T04:51:29.848Z,26.40
2022-11-14T04:52:32.402Z,30.52
2022-11-14T04:53:33.940Z,30.98
2022-11-14T04:54:36.478Z,27.35
2022-11-14T04:55:38.042Z,26.02
2022-11-14T04:56:41.941Z,27.85
2022-11-14T04:57:43.546Z,28.83
2022-11-14T04:58:46.112Z,35.22
2022-11-14T04:59:47.669Z,30.33
2022-11-14T05:00:50.297Z,28.25
2022-11-14T05:01:52.087Z,26.17
2022-11-14T05:02:54.793Z,28.85
2022-11-14T05:03:56.521Z,24.85
2022-11-14T05:04:59.098Z,30.90
2022-11-14T05:06:01.016Z,27.27
2022-11-14T05:07:03.617Z,28.10
2022-11-14T05:08:05.470Z,28.52
2022-11-14T05:09:08.256Z,28.63
2022-11-14T05:10:11.287Z,27.67
2022-11-14T05:11:14.421Z,26.73
2022-11-14T05:12:18.335Z,25.42
2022-11-14T05:13:19.906Z,29.55
2022-11-14T05:14:22.491Z,25.20
2022-11-14T05:15:24.060Z,28.30
2022-11-14T05:16:26.652Z,26.98
2022-11-14T05:17:28.444Z,26.10
2022-11-14T05:18:31.441Z,26.33
2022-11-14T05:19:33.267Z,24.58
2022-11-14T05:20:35.947Z,27.95
2022-11-14T05:21:37.474Z,33.70
2022-11-14T05:22:40.048Z,25.40
2022-11-14T05:23:41.845Z,29.50
2022-11-14T05:24:44.365Z,27.77
2022-11-14T05:25:46.031Z,26.52
2022-11-14T05:26:48.475Z,25.17
2022-11-14T05:27:51.449Z,27.67
2022-11-14T05:28:53.948Z,26.60
2022-11-14T05:29:55.682Z,34.15
2022-11-14T05:31:08.900Z,27.15
2022-11-14T05:32:15.973Z,28.55
2022-11-14T05:33:18.850Z,29.27
2022-11-14T05:34:20.426Z,28.52
2022-11-14T05:35:23.082Z,27.83
2022-11-14T05:36:24.720Z,28.75
2022-11-14T05:37:27.262Z,29.73
2022-11-14T05:38:29.245Z,25.23
2022-11-14T05:39:32.100Z,26.23
2022-11-14T05:40:33.648Z,27.80
2022-11-14T05:41:36.189Z,29.73
2022-11-14T05:42:37.776Z,27.17
2022-11-14T05:43:41.769Z,30.40
2022-11-14T05:44:43.342Z,26.33
2022-11-14T05:45:45.910Z,28.15
2022-11-14T05:46:47.503Z,27.42
2022-11-14T05:47:50.032Z,26.55
2022-11-14T05:48:51.567Z,26.08
2022-11-14T05:49:54.097Z,29.60
2022-11-14T05:50:56.155Z,27.23
2022-11-14T05:51:58.685Z,30.40
2022-11-14T05:53:00.250Z,26.58
2022-11-14T05:54:02.899Z,26.73
2022-11-14T05:55:04.981Z,28.65
2022-11-14T05:56:09.117Z,28.08
2022-11-14T05:57:11.122Z,28.80
2022-11-14T05:58:13.751Z,29.65
2022-11-14T05:59:17.696Z,29.10
2022-11-14T06:00:20.457Z,28.83
2022-11-14T06:01:22.042Z,26.33
2022-11-14T06:02:24.663Z,27.23
2022-11-14T06:03:26.260Z,23.08
2022-11-14T06:04:28.967Z,30.60
2022-11-14T06:05:30.815Z,28.65
2022-11-14T06:06:33.403Z,29.80
2022-11-14T06:07:35.023Z,33.05
2022-11-14T06:08:38.139Z,24.70
2022-11-14T06:09:40.724Z,26.50
2022-11-14T06:10:42.303Z,28.33
2022-11-14T06:11:44.863Z,31.17
2022-11-14T06:12:47.449Z,28.70
2022-11-14T06:13:50.159Z,27.77
2022-11-14T06:14:53.165Z,29.42
2022-11-14T06:15:59.799Z,31.60
2022-11-14T06:17:02.343Z,32.72
2022-11-14T06:18:04.082Z,30.33
2022-11-14T06:19:06.736Z,27.60
2022-11-14T06:20:09.204Z,29.08
2022-11-14T06:21:13.902Z,29.23
2022-11-14T06:22:15.698Z,27.05
2022-11-14T06:23:23.431Z,29.25
2022-11-14T06:24:27.251Z,30.02
2022-11-14T06:25:28.863Z,26.08
2022-11-14T06:26:32.544Z,28.60
2022-11-14T06:27:34.165Z,33.65
2022-11-14T06:28:36.728Z,28.15
2022-11-14T06:29:38.272Z,27.88
2022-11-14T06:30:42.316Z,30.98
2022-11-14T06:31:43.952Z,27.85
2022-11-14T06:32:46.557Z,30.98
2022-11-14T06:33:48.627Z,35.22
2022-11-14T06:34:51.291Z,26.60
2022-11-14T06:35:57.386Z,30.88
2022-11-14T06:36:59.890Z,28.02
2022-11-14T06:38:01.542Z,29.25
2022-11-14T06:39:04.206Z,29.30
2022-11-14T06:40:07.268Z,27.13
2022-11-14T06:41:11.877Z,31.58
2022-11-14T06:42:15.866Z,27.60
2022-11-14T06:43:18.439Z,30.38
2022-11-14T06:44:23.097Z,27.13
2022-11-14T06:45:26.989Z,30.73
2022-11-14T06:46:30.939Z,29.48
2022-11-14T06:47:32.531Z,27.50
2022-11-14T06:48:36.548Z,29.48
2022-11-14T06:49:40.616Z,24.25
2022-11-14T06:50:43.538Z,31.73
2022-11-14T06:51:46.183Z,31.50
2022-11-14T06:52:47.748Z,27.98
2022-11-14T06:53:50.368Z,26.48
2022-11-14T06:54:52.072Z,26.40
2022-11-14T06:55:58.355Z,24.10
2022-11-14T06:57:00.925Z,24.33
2022-11-14T06:58:02.540Z,24.42
2022-11-14T06:59:05.129Z,27.20
2022-11-14T07:00:08.366Z,27.05
2022-11-14T07:01:13.613Z,26.88
2022-11-14T07:02:21.555Z,25.45
2022-11-14T07:03:24.665Z,24.63
2022-11-14T07:04:27.262Z,26.98
2022-11-14T07:05:29.780Z,23.95
2022-11-14T07:06:32.635Z,23.77
2022-11-14T07:07:35.203Z,27.20
2022-11-14T07:08:36.968Z,28.13
2022-11-14T07:09:39.665Z,30.02
2022-11-14T07:10:41.392Z,28.63
2022-11-14T07:11:46.721Z,26.80
2022-11-14T07:12:48.249Z,28.65
2022-11-14T07:13:51.093Z,25.27
2022-11-14T07:14:53.602Z,21.92
2022-11-14T07:15:55.387Z,24.83
2022-11-14T07:16:58.938Z,27.55
2022-11-14T07:18:01.904Z,21.23
2022-11-14T07:19:06.570Z,23.92
2022-11-14T07:20:09.263Z,25.77
2022-11-14T07:21:13.290Z,23.95
2022-11-14T07:22:14.817Z,26.92
2022-11-14T07:23:22.533Z,25.35
2022-11-14T07:24:25.472Z,29.35
2022-11-14T07:25:27.113Z,23.25
2022-11-14T07:26:29.686Z,21.95
2022-11-14T07:27:32.321Z,28.15
2022-11-14T07:28:34.672Z,25.67
2022-11-14T07:29:37.234Z,26.33
2022-11-14T07:30:38.898Z,23.67
2022-11-14T07:31:41.669Z,22.83
2022-11-14T07:32:43.222Z,26.55
2022-11-14T07:33:47.652Z,23.67
2022-11-14T07:34:50.237Z,28.75
2022-11-14T07:35:52.905Z,22.58
2022-11-14T07:36:55.072Z,25.40
2022-11-14T07:38:03.241Z,25.50
2022-11-14T07:39:05.785Z,24.63
2022-11-14T07:40:08.456Z,25.65
2022-11-14T07:41:13.166Z,25.73
2022-11-14T07:42:15.749Z,25.05
2022-11-14T07:43:17.288Z,25.38
2022-11-14T07:44:19.847Z,24.50
2022-11-14T07:45:22.323Z,27.15
2022-11-14T07:46:23.928Z,25.80
2022-11-14T07:47:27.799Z,25.83
2022-11-14T07:48:31.147Z,24.23
2022-11-14T07:49:35.382Z,23.95
2022-11-14T07:50:36.934Z,24.42
2022-11-14T07:51:39.452Z,23.08
2022-11-14T07:52:42.256Z,22.75
2022-11-14T07:53:44.885Z,27.42
2022-11-14T07:54:46.410Z,24.30
2022-11-14T07:55:48.993Z,22.52
2022-11-14T07:56:50.852Z,21.20
2022-11-14T07:57:54.190Z,28.63
2022-11-14T07:58:56.770Z,21.85
2022-11-14T07:59:58.362Z,24.10
2022-11-14T08:01:01.839Z,20.50
2022-11-14T08:02:03.483Z,18.17
2022-11-14T08:03:07.801Z,21.02
2022-11-14T08:04:12.903Z,22.30
2022-11-14T08:05:16.977Z,21.15
2022-11-14T08:06:19.840Z,21.50
2022-11-14T08:07:21.477Z,24.48
2022-11-14T08:08:24.029Z,21.23
2022-11-14T08:09:26.654Z,21.23
2022-11-14T08:10:33.371Z,19.33
2022-11-14T08:11:51.837Z,19.67
2022-11-14T08:13:17.488Z,21.38
2022-11-14T08:14:21.582Z,22.08
2022-11-14T08:15:24.122Z,18.73
2022-11-14T08:16:26.659Z,21.15
2022-11-14T08:17:29.211Z,18.10
2022-11-14T08:18:32.068Z,23.88
2022-11-14T08:19:34.819Z,22.67
2022-11-14T08:20:38.718Z,21.85
2022-11-14T08:21:40.492Z,18.52
2022-11-14T08:22:42.999Z,19.33
2022-11-14T08:23:45.778Z,18.98
2022-11-14T08:24:47.349Z,22.67
2022-11-14T08:25:49.874Z,19.35
2022-11-14T08:26:52.384Z,20.23
2022-11-14T08:27:54.129Z,18.65
2022-11-14T08:28:56.671Z,18.88
2022-11-14T08:29:58.340Z,19.88
2022-11-14T08:31:02.129Z,19.90
2022-11-14T08:32:03.715Z,19.23
2022-11-14T08:33:07.195Z,19.65
2022-11-14T08:34:09.932Z,17.77
2022-11-14T08:35:14.810Z,17.88
2022-11-14T08:36:18.737Z,20.33
2022-11-14T08:37:21.266Z,15.75
2022-11-14T08:38:22.864Z,20.13
2022-11-14T08:39:25.609Z,20.90
2022-11-14T08:40:28.257Z,22.33
2022-11-14T08:41:29.912Z,19.85
2022-11-14T08:42:32.475Z,16.83
2022-11-14T08:43:34.065Z,19.35
2022-11-14T08:44:36.620Z,17.98
2022-11-14T08:45:39.139Z,16.08
2022-11-14T08:46:40.737Z,19.38
2022-11-14T08:47:43.297Z,19.70
2022-11-14T08:48:44.909Z,17.10
2022-11-14T08:49:47.478Z,15.65
2022-11-14T08:50:50.111Z,19.15
2022-11-14T08:51:54.409Z,20.00
2022-11-14T08:52:57.167Z,17.67
2022-11-14T08:53:58.802Z,17.77
2022-11-14T08:55:01.384Z,19.52
2022-11-14T08:56:04.113Z,22.38
2022-11-14T08:57:06.533Z,18.25
2022-11-14T08:58:09.122Z,16.45
2022-11-14T08:59:12.383Z,17.00
2022-11-14T09:00:16.112Z,17.35
2022-11-14T09:01:18.693Z,18.33
2022-11-14T09:02:21.383Z,19.13
2022-11-14T09:03:22.988Z,19.20
2022-11-14T09:04:25.687Z,19.08
2022-11-14T09:05:27.240Z,17.27
2022-11-14T09:06:29.746Z,17.92
2022-11-14T09:07:33.715Z,16.38
2022-11-14T09:08:36.352Z,17.67
2022-11-14T09:09:38.881Z,13.63
2022-11-14T09:10:40.493Z,16.35
2022-11-14T09:11:43.017Z,14.88
2022-11-14T09:12:44.615Z,16.48
2022-11-14T09:13:47.361Z,19.30
2022-11-14T09:14:49.850Z,16.08
2022-11-14T09:15:51.441Z,16.35
2022-11-14T09:16:53.979Z,15.25
2022-11-14T09:17:56.151Z,15.68
2022-11-14T09:18:58.704Z,18.50
2022-11-14T09:20:01.607Z,15.68
2022-11-14T09:21:05.715Z,18.10
2022-11-14T09:22:07.264Z,17.35
2022-11-14T09:23:11.713Z,16.67
2022-11-14T09:24:14.339Z,17.55
2022-11-14T09:25:15.886Z,19.15
2022-11-14T09:26:19.273Z,16.10
2022-11-14T09:27:20.833Z,16.80
2022-11-14T09:28:23.510Z,15.70
2022-11-14T09:29:26.093Z,19.10
2022-11-14T09:30:28.580Z,14.00
2022-11-14T09:31:31.112Z,15.07
2022-11-14T09:32:33.699Z,19.00
2022-11-14T09:33:36.468Z,19.08
2022-11-14T09:34:42.836Z,17.05
2022-11-14T09:35:45.320Z,15.27
2022-11-14T09:36:47.833Z,16.75
2022-11-14T09:37:49.398Z,15.82
2022-11-14T09:38:53.317Z,14.77
2022-11-14T09:39:54.857Z,15.20
2022-11-14T09:41:05.710Z,14.57
2022-11-14T09:42:19.999Z,16.73
2022-11-14T09:43:39.061Z,16.58
2022-11-14T09:44:51.316Z,13.27
2022-11-14T09:45:53.646Z,16.33
2022-11-14T09:46:58.324Z,15.98
2022-11-14T09:48:05.149Z,14.20
2022-11-14T09:49:11.291Z,12.82
2022-11-14T09:50:15.988Z,15.13
2022-11-14T09:51:21.640Z,14.38
2022-11-14T09:52:28.397Z,13.55
2022-11-14T09:53:33.742Z,16.17
2022-11-14T09:54:44.771Z,14.88
2022-11-14T09:55:46.312Z,13.13
2022-11-14T09:56:48.881Z,14.80
2022-11-14T09:57:51.462Z,15.50
2022-11-14T09:58:54.993Z,14.57
2022-11-14T09:59:57.642Z,15.02
2022-11-14T10:01:08.955Z,17.40
2022-11-14T10:02:21.678Z,14.25
2022-11-14T10:03:34.331Z,16.55
2022-11-14T10:04:45.597Z,14.00
2022-11-14T10:06:04.000Z,13.05
2022-11-14T10:07:13.076Z,14.70
2022-11-14T10:08:38.999Z,16.95
2022-11-14T10:09:52.654Z,13.10
2022-11-14T10:10:57.458Z,15.30
2022-11-14T10:12:04.816Z,16.05
2022-11-14T10:13:17.598Z,16.08
2022-11-14T10:14:56.638Z,14.57
2022-11-14T10:16:05.957Z,14.55
2022-11-14T10:17:19.313Z,14.52
2022-11-14T10:18:34.408Z,13.90
2022-11-14T10:19:43.851Z,18.17
2022-11-14T10:20:50.662Z,14.15
2022-11-14T10:22:07.073Z,14.85
2022-11-14T10:23:19.744Z,15.07
2022-11-14T10:24:55.738Z,13.85
2022-11-14T10:26:08.825Z,15.43
2022-11-14T10:27:18.763Z,12.02
2022-11-14T10:28:33.171Z,14.55
2022-11-14T10:29:46.136Z,14.55
2022-11-14T10:30:52.636Z,17.23
2022-11-14T10:31:59.997Z,14.43
2022-11-14T10:33:14.015Z,17.52
2022-11-14T10:34:20.757Z,14.10
2022-11-14T10:35:24.209Z,14.50
2022-11-14T10:36:50.166Z,14.80
2022-11-14T10:37:57.581Z,14.18
2022-11-14T10:39:05.174Z,15.43
2022-11-14T10:40:17.481Z,15.18
2022-11-14T10:41:41.837Z,13.68
2022-11-14T10:42:44.362Z,14.63
2022-11-14T10:43:48.634Z,14.40
2022-11-14T10:44:55.083Z,13.50
2022-11-14T10:46:00.366Z,13.07
2022-11-14T10:47:05.628Z,14.98
2022-11-14T10:48:13.324Z,12.35
2022-11-14T10:49:18.419Z,17.85
2022-11-14T10:50:23.369Z,16.08
2022-11-14T10:51:29.603Z,17.05
2022-11-14T10:52:38.537Z,13.73
2022-11-14T10:53:47.833Z,14.48
2022-11-14T10:54:54.161Z,15.57
2022-11-14T10:56:04.079Z,13.45
2022-11-14T10:57:15.550Z,13.40
2022-11-14T10:58:18.117Z,12.52
2022-11-14T10:59:21.391Z,14.65
2022-11-14T11:00:23.097Z,16.38
2022-11-14T11:01:37.770Z,33.22
2022-11-14T11:02:52.361Z,14.70
2022-11-14T11:03:53.968Z,12.73
2022-11-14T11:05:05.996Z,16.58
2022-11-14T11:06:25.937Z,12.77
2022-11-14T11:07:46.022Z,13.23
2022-11-14T11:09:06.614Z,11.85
2022-11-14T11:10:39.052Z,15.75
2022-11-14T11:11:53.689Z,12.68
2022-11-14T11:12:56.409Z,12.57
2022-11-14T11:13:59.832Z,13.63
2022-11-14T11:15:16.472Z,15.48
2022-11-14T11:16:20.340Z,12.73
2022-11-14T11:17:28.414Z,14.32
2022-11-14T11:18:37.002Z,12.77
2022-11-14T11:19:40.658Z,12.35
2022-11-14T11:20:43.685Z,13.10
2022-11-14T11:21:51.148Z,13.48
2022-11-14T11:23:03.636Z,14.23
2022-11-14T11:24:07.116Z,14.23
2022-11-14T11:25:24.985Z,12.95
2022-11-14T11:26:29.563Z,12.95
2022-11-14T11:27:33.470Z,14.35
2022-11-14T11:28:37.169Z,11.25
2022-11-14T11:29:39.767Z,14.38
2022-11-14T11:30:56.387Z,14.10
2022-11-14T11:31:59.730Z,15.27
2022-11-14T11:33:22.870Z,12.90
2022-11-14T11:34:25.993Z,12.40
2022-11-14T11:35:28.522Z,14.98
2022-11-14T11:36:32.244Z,12.52
2022-11-14T11:37:40.084Z,13.30
2022-11-14T11:38:43.448Z,12.98
2022-11-14T11:39:47.762Z,13.65
2022-11-14T11:40:52.699Z,14.23
2022-11-14T11:42:12.499Z,12.15
2022-11-14T11:43:38.308Z,11.65
2022-11-14T11:44:46.652Z,13.75
2022-11-14T11:45:49.389Z,12.80
2022-11-14T11:46:55.272Z,9.90
2022-11-14T11:48:02.347Z,12.50
2022-11-14T11:49:14.717Z,14.15
2022-11-14T11:50:18.257Z,13.40
2022-11-14T11:51:24.776Z,13.77
2022-11-14T11:52:31.655Z,11.98
2022-11-14T11:53:36.262Z,11.20
2022-11-14T11:54:55.320Z,11.52
2022-11-14T11:56:04.338Z,11.50
2022-11-14T11:57:21.418Z,12.45
2022-11-14T11:58:28.613Z,12.50
2022-11-14T11:59:33.567Z,10.90
2022-11-14T12:00:36.324Z,12.15
2022-11-14T12:01:38.895Z,10.75
2022-11-14T12:02:49.313Z,10.73
2022-11-14T12:03:53.544Z,9.93
2022-11-14T12:04:56.349Z,11.13
2022-11-14T12:06:05.758Z,10.55
2022-11-14T12:07:13.219Z,12.30
2022-11-14T12:08:21.748Z,9.52
2022-11-14T12:09:48.642Z,10.20
2022-11-14T12:10:51.151Z,10.00
2022-11-14T12:11:55.695Z,12.25
2022-11-14T12:13:21.739Z,10.55
2022-11-14T12:14:42.990Z,11.02
2022-11-14T12:15:48.809Z,10.90
2022-11-14T12:17:07.449Z,9.48
2022-11-14T12:18:18.304Z,10.70
2022-11-14T12:19:49.665Z,9.25
2022-11-14T12:21:04.696Z,11.35
2022-11-14T12:22:24.229Z,10.77
2022-11-14T12:23:48.813Z,8.35
2022-11-14T12:25:13.658Z,7.68
2022-11-14T12:26:27.780Z,9.50
2022-11-14T12:27:42.021Z,10.63
2022-11-14T12:28:59.521Z,9.05
2022-11-14T12:30:14.859Z,10.57
2022-11-14T12:31:18.487Z,8.32
2022-11-14T12:32:28.547Z,10.10
2022-11-14T12:33:33.686Z,9.35
2022-11-14T12:34:39.339Z,10.13
2022-11-14T12:35:49.826Z,8.55
2022-11-14T12:36:51.628Z,11.18
2022-11-14T12:37:56.206Z,12.38
2022-11-14T12:38:59.728Z,10.45
2022-11-14T12:40:03.740Z,7.97
2022-11-14T12:41:07.492Z,13.57
2022-11-14T12:42:14.492Z,9.45
2022-11-14T12:43:36.065Z,9.85
2022-11-14T12:44:40.251Z,11.02
2022-11-14T12:46:01.460Z,11.48
2022-11-14T12:47:14.906Z,11.68
2022-11-14T12:48:23.103Z,9.93
2022-11-14T12:49:39.071Z,10.77
2022-11-14T12:50:41.901Z,11.05
2022-11-14T12:51:52.340Z,11.45
2022-11-14T12:52:54.998Z,8.60
2022-11-14T12:53:58.145Z,10.95
2022-11-14T12:54:59.917Z,9.43
2022-11-14T12:56:38.082Z,9.80
2022-11-14T12:57:50.797Z,10.65
2022-11-14T12:59:05.896Z,9.90
2022-11-14T13:00:10.192Z,8.50
2022-11-14T13:01:25.942Z,11.65
2022-11-14T13:02:45.231Z,9.55
2022-11-14T13:04:00.254Z,9.13
2022-11-14T13:05:25.228Z,10.48
2022-11-14T13:06:32.008Z,8.13
2022-11-14T13:07:43.143Z,9.73
2022-11-14T13:08:58.550Z,8.82
2022-11-14T13:10:15.142Z,10.60
2022-11-14T13:11:55.529Z,10.65
2022-11-14T13:13:16.530Z,12.80
2022-11-14T13:14:37.323Z,10.18
2022-11-14T13:16:07.932Z,9.35
2022-11-14T13:17:43.120Z,8.48
2022-11-14T13:19:11.560Z,10.13
2022-11-14T13:20:47.084Z,11.48
2022-11-14T13:22:19.944Z,9.30
2022-11-14T13:23:57.580Z,9.45
2022-11-14T13:25:22.001Z,9.85
2022-11-14T13:26:36.669Z,8.77
2022-11-14T13:28:06.041Z,10.93
2022-11-14T13:29:01.808Z,9.23
2022-11-14T13:30:07.879Z,9.80
2022-11-14T13:31:19.364Z,8.43
2022-11-14T13:33:07.625Z,10.00
2022-11-14T13:34:50.473Z,9.90
2022-11-14T13:36:02.202Z,10.25
2022-11-14T13:37:19.846Z,10.50
2022-11-14T13:38:47.333Z,8.85
2022-11-14T13:39:53.580Z,12.73
2022-11-14T13:41:05.693Z,9.10
2022-11-14T13:42:25.706Z,12.02
2022-11-14T13:43:38.117Z,11.48
2022-11-14T13:45:05.888Z,11.82
2022-11-14T13:46:13.513Z,11.38
2022-11-14T13:47:26.711Z,9.27
2022-11-14T13:48:47.332Z,11.02
2022-11-14T13:49:59.253Z,10.18
2022-11-14T13:51:28.556Z,9.25
2022-11-14T13:52:29.722Z,10.52
2022-11-14T13:53:33.272Z,11.25
2022-11-14T13:54:35.942Z,12.18
2022-11-14T13:55:48.105Z,11.35
2022-11-14T13:56:58.602Z,10.57
2022-11-14T13:58:10.045Z,9.68
2022-11-14T13:59:28.986Z,9.30
2022-11-14T14:00:50.102Z,9.32
2022-11-14T14:02:27.229Z,10.07
2022-11-14T14:03:38.318Z,10.18
2022-11-14T14:04:48.424Z,9.68
2022-11-14T14:06:07.776Z,10.60
2022-11-14T14:07:15.958Z,8.73